sensor_id;sensor_type;location;lat;lon;timestamp;P1;durP1;ratioP1;P2;durP2;ratioP2
83827;SDS011;74656;48.870;12.562;2024-02-23T00:00:28;17.17;;;10.13;;
83827;SDS011;74656;48.870;12.562;2024-02-23T00:03:30;13.25;;;10.18;;
83827;SDS011;74656;48.870;12.562;2024-02-23T00:06:32;18.70;;;11.48;;
83827;SDS011;74656;48.870;12.562;2024-02-23T00:09:34;18.67;;;10.65;;
83827;SDS011;74656;48.870;12.562;2024-02-23T00:12:36;19.27;;;9.73;;
83827;SDS011;74656;48.870;12.562;2024-02-23T00:15:38;5.50;;;3.90;;
83827;SDS011;74656;48.870;12.562;2024-02-23T00:18:40;4.03;;;2.53;;
83827;SDS011;74656;48.870;12.562;2024-02-23T00:21:42;3.60;;;1.92;;
83827;SDS011;74656;48.870;12.562;2024-02-23T00:24:44;5.10;;;3.30;;
83827;SDS011;74656;48.870;12.562;2024-02-23T00:27:46;2.60;;;2.08;;
83827;SDS011;74656;48.870;12.562;2024-02-23T00:30:48;1.70;;;1.15;;
83827;SDS011;74656;48.870;12.562;2024-02-23T00:33:50;1.45;;;1.30;;
83827;SDS011;74656;48.870;12.562;2024-02-23T00:36:52;4.75;;;1.45;;
83827;SDS011;74656;48.870;12.562;2024-02-23T00:39:54;2.20;;;1.83;;
83827;SDS011;74656;48.870;12.562;2024-02-23T00:42:56;1.20;;;1.10;;
83827;SDS011;74656;48.870;12.562;2024-02-23T00:45:58;1.60;;;1.30;;
83827;SDS011;74656;48.870;12.562;2024-02-23T00:49:00;1.35;;;0.93;;
83827;SDS011;74656;48.870;12.562;2024-02-23T00:52:02;2.45;;;1.55;;
83827;SDS011;74656;48.870;12.562;2024-02-23T00:55:04;2.42;;;1.60;;
83827;SDS011;74656;48.870;12.562;2024-02-23T00:58:06;2.35;;;1.80;;
83827;SDS011;74656;48.870;12.562;2024-02-23T01:01:09;3.25;;;1.98;;
83827;SDS011;74656;48.870;12.562;2024-02-23T01:04:11;3.50;;;2.35;;
83827;SDS011;74656;48.870;12.562;2024-02-23T01:07:13;3.92;;;2.40;;
83827;SDS011;74656;48.870;12.562;2024-02-23T01:10:15;6.03;;;3.17;;
83827;SDS011;74656;48.870;12.562;2024-02-23T01:13:17;5.47;;;3.30;;
83827;SDS011;74656;48.870;12.562;2024-02-23T01:16:19;6.43;;;3.85;;
83827;SDS011;74656;48.870;12.562;2024-02-23T01:19:21;8.85;;;4.35;;
83827;SDS011;74656;48.870;12.562;2024-02-23T01:22:23;6.10;;;4.22;;
83827;SDS011;74656;48.870;12.562;2024-02-23T01:25:25;6.63;;;4.22;;
83827;SDS011;74656;48.870;12.562;2024-02-23T01:28:27;7.22;;;4.00;;
83827;SDS011;74656;48.870;12.562;2024-02-23T01:31:29;5.53;;;4.07;;
83827;SDS011;74656;48.870;12.562;2024-02-23T01:34:30;5.28;;;3.47;;
83827;SDS011;74656;48.870;12.562;2024-02-23T01:37:32;4.22;;;2.85;;
83827;SDS011;74656;48.870;12.562;2024-02-23T01:40:35;3.85;;;2.60;;
83827;SDS011;74656;48.870;12.562;2024-02-23T01:43:37;5.25;;;2.60;;
83827;SDS011;74656;48.870;12.562;2024-02-23T01:46:39;4.10;;;2.20;;
83827;SDS011;74656;48.870;12.562;2024-02-23T01:49:41;2.28;;;1.38;;
83827;SDS011;74656;48.870;12.562;2024-02-23T01:52:44;2.20;;;1.50;;
83827;SDS011;74656;48.870;12.562;2024-02-23T01:55:46;1.35;;;1.02;;
83827;SDS011;74656;48.870;12.562;2024-02-23T01:58:49;2.47;;;1.15;;
83827;SDS011;74656;48.870;12.562;2024-02-23T02:01:52;1.05;;;0.90;;
83827;SDS011;74656;48.870;12.562;2024-02-23T02:04:53;1.15;;;0.75;;
83827;SDS011;74656;48.870;12.562;2024-02-23T02:07:55;0.98;;;0.68;;
83827;SDS011;74656;48.870;12.562;2024-02-23T02:10:58;0.80;;;0.80;;
83827;SDS011;74656;48.870;12.562;2024-02-23T02:14:00;0.70;;;0.70;;
83827;SDS011;74656;48.870;12.562;2024-02-23T02:17:02;0.80;;;0.80;;
83827;SDS011;74656;48.870;12.562;2024-02-23T02:20:04;0.95;;;0.75;;
83827;SDS011;74656;48.870;12.562;2024-02-23T02:23:07;0.52;;;0.52;;
83827;SDS011;74656;48.870;12.562;2024-02-23T02:26:09;0.73;;;0.73;;
83827;SDS011;74656;48.870;12.562;2024-02-23T02:29:13;0.80;;;0.75;;
83827;SDS011;74656;48.870;12.562;2024-02-23T02:32:15;0.38;;;0.38;;
83827;SDS011;74656;48.870;12.562;2024-02-23T02:35:17;0.22;;;0.22;;
83827;SDS011;74656;48.870;12.562;2024-02-23T02:38:19;0.68;;;0.50;;
83827;SDS011;74656;48.870;12.562;2024-02-23T02:41:22;0.60;;;0.60;;
83827;SDS011;74656;48.870;12.562;2024-02-23T02:44:29;0.40;;;0.40;;
83827;SDS011;74656;48.870;12.562;2024-02-23T02:47:31;0.45;;;0.45;;
83827;SDS011;74656;48.870;12.562;2024-02-23T02:50:33;0.50;;;0.50;;
83827;SDS011;74656;48.870;12.562;2024-02-23T02:53:36;0.55;;;0.55;;
83827;SDS011;74656;48.870;12.562;2024-02-23T02:56:42;0.10;;;0.10;;
83827;SDS011;74656;48.870;12.562;2024-02-23T02:59:49;0.13;;;0.13;;
83827;SDS011;74656;48.870;12.562;2024-02-23T03:02:51;0.32;;;0.30;;
83827;SDS011;74656;48.870;12.562;2024-02-23T03:05:53;0.40;;;0.40;;
83827;SDS011;74656;48.870;12.562;2024-02-23T03:08:55;0.22;;;0.22;;
83827;SDS011;74656;48.870;12.562;2024-02-23T03:11:57;0.63;;;0.55;;
83827;SDS011;74656;48.870;12.562;2024-02-23T03:14:59;0.38;;;0.32;;
83827;SDS011;74656;48.870;12.562;2024-02-23T03:18:01;0.20;;;0.20;;
83827;SDS011;74656;48.870;12.562;2024-02-23T03:21:03;0.50;;;0.50;;
83827;SDS011;74656;48.870;12.562;2024-02-23T03:24:05;0.50;;;0.40;;
83827;SDS011;74656;48.870;12.562;2024-02-23T03:27:08;0.13;;;0.13;;
83827;SDS011;74656;48.870;12.562;2024-02-23T03:30:10;0.45;;;0.38;;
83827;SDS011;74656;48.870;12.562;2024-02-23T03:33:12;0.40;;;0.40;;
83827;SDS011;74656;48.870;12.562;2024-02-23T03:36:14;0.30;;;0.30;;
83827;SDS011;74656;48.870;12.562;2024-02-23T03:39:16;0.70;;;0.35;;
83827;SDS011;74656;48.870;12.562;2024-02-23T03:42:18;0.45;;;0.32;;
83827;SDS011;74656;48.870;12.562;2024-02-23T03:45:20;0.43;;;0.43;;
83827;SDS011;74656;48.870;12.562;2024-02-23T03:48:22;0.40;;;0.40;;
83827;SDS011;74656;48.870;12.562;2024-02-23T03:51:24;1.67;;;0.38;;
83827;SDS011;74656;48.870;12.562;2024-02-23T03:54:26;0.40;;;0.40;;
83827;SDS011;74656;48.870;12.562;2024-02-23T03:57:28;0.38;;;0.38;;
83827;SDS011;74656;48.870;12.562;2024-02-23T04:00:30;0.22;;;0.20;;
83827;SDS011;74656;48.870;12.562;2024-02-23T04:03:32;0.45;;;0.45;;
83827;SDS011;74656;48.870;12.562;2024-02-23T04:06:34;0.38;;;0.30;;
83827;SDS011;74656;48.870;12.562;2024-02-23T04:09:36;1.23;;;0.70;;
83827;SDS011;74656;48.870;12.562;2024-02-23T04:12:38;0.60;;;0.60;;
83827;SDS011;74656;48.870;12.562;2024-02-23T04:15:40;0.52;;;0.52;;
83827;SDS011;74656;48.870;12.562;2024-02-23T04:18:42;1.83;;;0.82;;
83827;SDS011;74656;48.870;12.562;2024-02-23T04:21:44;0.38;;;0.38;;
83827;SDS011;74656;48.870;12.562;2024-02-23T04:24:46;0.32;;;0.32;;
83827;SDS011;74656;48.870;12.562;2024-02-23T04:27:48;4.45;;;1.40;;
83827;SDS011;74656;48.870;12.562;2024-02-23T04:30:49;0.38;;;0.38;;
83827;SDS011;74656;48.870;12.562;2024-02-23T04:33:51;0.85;;;0.82;;
83827;SDS011;74656;48.870;12.562;2024-02-23T04:36:54;0.50;;;0.50;;
83827;SDS011;74656;48.870;12.562;2024-02-23T04:39:56;0.98;;;0.88;;
83827;SDS011;74656;48.870;12.562;2024-02-23T04:42:58;0.40;;;0.40;;
83827;SDS011;74656;48.870;12.562;2024-02-23T04:46:01;0.35;;;0.35;;
83827;SDS011;74656;48.870;12.562;2024-02-23T04:49:02;0.40;;;0.40;;
83827;SDS011;74656;48.870;12.562;2024-02-23T04:52:05;2.30;;;0.52;;
83827;SDS011;74656;48.870;12.562;2024-02-23T04:55:07;1.70;;;1.23;;
83827;SDS011;74656;48.870;12.562;2024-02-23T04:58:09;0.85;;;0.85;;
83827;SDS011;74656;48.870;12.562;2024-02-23T05:01:11;0.28;;;0.28;;
83827;SDS011;74656;48.870;12.562;2024-02-23T05:04:13;2.90;;;0.95;;
83827;SDS011;74656;48.870;12.562;2024-02-23T05:07:15;0.47;;;0.47;;
83827;SDS011;74656;48.870;12.562;2024-02-23T05:10:17;0.82;;;0.70;;
83827;SDS011;74656;48.870;12.562;2024-02-23T05:13:19;0.40;;;0.40;;
83827;SDS011;74656;48.870;12.562;2024-02-23T05:16:21;0.43;;;0.43;;
83827;SDS011;74656;48.870;12.562;2024-02-23T05:19:23;0.77;;;0.43;;
83827;SDS011;74656;48.870;12.562;2024-02-23T05:22:25;0.30;;;0.30;;
83827;SDS011;74656;48.870;12.562;2024-02-23T05:25:27;0.40;;;0.40;;
83827;SDS011;74656;48.870;12.562;2024-02-23T05:28:29;0.57;;;0.57;;
83827;SDS011;74656;48.870;12.562;2024-02-23T05:31:48;0.63;;;0.63;;
83827;SDS011;74656;48.870;12.562;2024-02-23T05:34:51;1.88;;;0.77;;
83827;SDS011;74656;48.870;12.562;2024-02-23T05:37:53;0.60;;;0.60;;
83827;SDS011;74656;48.870;12.562;2024-02-23T05:40:55;0.93;;;0.70;;
83827;SDS011;74656;48.870;12.562;2024-02-23T05:43:57;0.68;;;0.68;;
83827;SDS011;74656;48.870;12.562;2024-02-23T05:46:59;0.90;;;0.68;;
83827;SDS011;74656;48.870;12.562;2024-02-23T05:50:02;1.33;;;0.70;;
83827;SDS011;74656;48.870;12.562;2024-02-23T05:53:06;0.88;;;0.70;;
83827;SDS011;74656;48.870;12.562;2024-02-23T05:56:08;0.90;;;0.63;;
83827;SDS011;74656;48.870;12.562;2024-02-23T05:59:10;3.92;;;1.00;;
83827;SDS011;74656;48.870;12.562;2024-02-23T06:02:13;3.17;;;1.95;;
83827;SDS011;74656;48.870;12.562;2024-02-23T06:05:15;3.38;;;1.85;;
83827;SDS011;74656;48.870;12.562;2024-02-23T06:08:17;2.20;;;1.75;;
83827;SDS011;74656;48.870;12.562;2024-02-23T06:11:19;1.88;;;0.70;;
83827;SDS011;74656;48.870;12.562;2024-02-23T06:14:21;0.95;;;0.77;;
83827;SDS011;74656;48.870;12.562;2024-02-23T06:17:24;1.48;;;0.82;;
83827;SDS011;74656;48.870;12.562;2024-02-23T06:20:26;1.20;;;0.88;;
83827;SDS011;74656;48.870;12.562;2024-02-23T06:23:28;0.88;;;0.70;;
83827;SDS011;74656;48.870;12.562;2024-02-23T06:26:30;6.07;;;0.88;;
83827;SDS011;74656;48.870;12.562;2024-02-23T06:29:32;0.80;;;0.70;;
83827;SDS011;74656;48.870;12.562;2024-02-23T06:32:35;1.10;;;1.00;;
83827;SDS011;74656;48.870;12.562;2024-02-23T06:35:37;0.93;;;0.65;;
83827;SDS011;74656;48.870;12.562;2024-02-23T06:38:39;3.03;;;0.80;;
83827;SDS011;74656;48.870;12.562;2024-02-23T06:41:41;3.10;;;1.08;;
83827;SDS011;74656;48.870;12.562;2024-02-23T06:44:43;1.77;;;0.95;;
83827;SDS011;74656;48.870;12.562;2024-02-23T06:47:45;1.33;;;1.15;;
83827;SDS011;74656;48.870;12.562;2024-02-23T06:50:48;1.15;;;0.93;;
83827;SDS011;74656;48.870;12.562;2024-02-23T06:53:50;1.48;;;1.20;;
83827;SDS011;74656;48.870;12.562;2024-02-23T06:56:52;1.63;;;1.02;;
83827;SDS011;74656;48.870;12.562;2024-02-23T06:59:54;3.08;;;1.25;;
83827;SDS011;74656;48.870;12.562;2024-02-23T07:02:55;0.82;;;0.82;;
83827;SDS011;74656;48.870;12.562;2024-02-23T07:05:58;1.55;;;0.88;;
83827;SDS011;74656;48.870;12.562;2024-02-23T07:09:00;1.02;;;0.63;;
83827;SDS011;74656;48.870;12.562;2024-02-23T07:12:02;0.85;;;0.73;;
83827;SDS011;74656;48.870;12.562;2024-02-23T07:15:05;0.98;;;0.65;;
83827;SDS011;74656;48.870;12.562;2024-02-23T07:18:08;1.23;;;0.80;;
83827;SDS011;74656;48.870;12.562;2024-02-23T07:21:10;0.40;;;0.40;;
83827;SDS011;74656;48.870;12.562;2024-02-23T07:24:12;2.25;;;1.00;;
83827;SDS011;74656;48.870;12.562;2024-02-23T07:27:15;1.20;;;1.08;;
83827;SDS011;74656;48.870;12.562;2024-02-23T07:30:17;0.82;;;0.82;;
83827;SDS011;74656;48.870;12.562;2024-02-23T07:33:19;2.03;;;0.60;;
83827;SDS011;74656;48.870;12.562;2024-02-23T07:36:21;0.57;;;0.57;;
83827;SDS011;74656;48.870;12.562;2024-02-23T07:39:23;0.82;;;0.50;;
83827;SDS011;74656;48.870;12.562;2024-02-23T07:42:25;1.25;;;0.77;;
83827;SDS011;74656;48.870;12.562;2024-02-23T07:45:27;1.60;;;0.88;;
83827;SDS011;74656;48.870;12.562;2024-02-23T07:48:29;1.73;;;1.20;;
83827;SDS011;74656;48.870;12.562;2024-02-23T07:51:31;1.58;;;0.95;;
83827;SDS011;74656;48.870;12.562;2024-02-23T07:54:34;1.00;;;0.63;;
83827;SDS011;74656;48.870;12.562;2024-02-23T07:57:37;2.13;;;1.05;;
83827;SDS011;74656;48.870;12.562;2024-02-23T08:00:39;1.35;;;1.00;;
83827;SDS011;74656;48.870;12.562;2024-02-23T08:03:41;1.90;;;1.70;;
83827;SDS011;74656;48.870;12.562;2024-02-23T08:06:44;4.47;;;1.02;;
83827;SDS011;74656;48.870;12.562;2024-02-23T08:09:46;1.10;;;0.90;;
83827;SDS011;74656;48.870;12.562;2024-02-23T08:12:48;1.58;;;0.77;;
83827;SDS011;74656;48.870;12.562;2024-02-23T08:15:50;1.27;;;1.02;;
83827;SDS011;74656;48.870;12.562;2024-02-23T08:18:52;1.77;;;1.00;;
83827;SDS011;74656;48.870;12.562;2024-02-23T08:21:54;1.63;;;1.05;;
83827;SDS011;74656;48.870;12.562;2024-02-23T08:24:56;0.82;;;0.73;;
83827;SDS011;74656;48.870;12.562;2024-02-23T08:27:58;1.17;;;0.70;;
83827;SDS011;74656;48.870;12.562;2024-02-23T08:31:00;1.13;;;0.80;;
83827;SDS011;74656;48.870;12.562;2024-02-23T08:34:02;0.82;;;0.80;;
83827;SDS011;74656;48.870;12.562;2024-02-23T08:37:04;2.80;;;1.02;;
83827;SDS011;74656;48.870;12.562;2024-02-23T08:40:06;1.30;;;1.20;;
83827;SDS011;74656;48.870;12.562;2024-02-23T08:43:08;2.67;;;2.40;;
83827;SDS011;74656;48.870;12.562;2024-02-23T08:46:10;1.50;;;1.15;;
83827;SDS011;74656;48.870;12.562;2024-02-23T08:49:12;1.20;;;1.10;;
83827;SDS011;74656;48.870;12.562;2024-02-23T08:52:14;2.60;;;1.60;;
83827;SDS011;74656;48.870;12.562;2024-02-23T08:55:17;0.95;;;0.93;;
83827;SDS011;74656;48.870;12.562;2024-02-23T08:58:19;1.30;;;1.20;;
83827;SDS011;74656;48.870;12.562;2024-02-23T09:01:21;1.88;;;1.23;;
83827;SDS011;74656;48.870;12.562;2024-02-23T09:04:23;5.00;;;1.58;;
83827;SDS011;74656;48.870;12.562;2024-02-23T09:07:25;1.30;;;1.00;;
83827;SDS011;74656;48.870;12.562;2024-02-23T09:10:27;0.75;;;0.75;;
83827;SDS011;74656;48.870;12.562;2024-02-23T09:13:29;0.88;;;0.88;;
83827;SDS011;74656;48.870;12.562;2024-02-23T09:16:32;9.25;;;5.00;;
83827;SDS011;74656;48.870;12.562;2024-02-23T09:19:34;0.98;;;0.82;;
83827;SDS011;74656;48.870;12.562;2024-02-23T09:22:36;1.02;;;0.90;;
83827;SDS011;74656;48.870;12.562;2024-02-23T09:25:38;4.05;;;1.00;;
83827;SDS011;74656;48.870;12.562;2024-02-23T09:28:44;1.00;;;0.70;;
83827;SDS011;74656;48.870;12.562;2024-02-23T09:31:46;1.48;;;1.10;;
83827;SDS011;74656;48.870;12.562;2024-02-23T09:34:48;1.10;;;0.77;;
83827;SDS011;74656;48.870;12.562;2024-02-23T09:37:50;0.47;;;0.47;;
83827;SDS011;74656;48.870;12.562;2024-02-23T09:40:52;1.10;;;0.90;;
83827;SDS011;74656;48.870;12.562;2024-02-23T09:43:55;0.90;;;0.80;;
83827;SDS011;74656;48.870;12.562;2024-02-23T09:47:01;0.95;;;0.88;;
83827;SDS011;74656;48.870;12.562;2024-02-23T09:50:05;0.57;;;0.35;;
83827;SDS011;74656;48.870;12.562;2024-02-23T09:53:09;2.53;;;0.70;;
83827;SDS011;74656;48.870;12.562;2024-02-23T09:56:14;1.40;;;0.65;;
83827;SDS011;74656;48.870;12.562;2024-02-23T09:59:17;1.77;;;1.00;;
83827;SDS011;74656;48.870;12.562;2024-02-23T10:02:20;1.33;;;1.17;;
83827;SDS011;74656;48.870;12.562;2024-02-23T10:05:23;1.65;;;1.10;;
83827;SDS011;74656;48.870;12.562;2024-02-23T10:08:37;1.80;;;1.00;;
83827;SDS011;74656;48.870;12.562;2024-02-23T10:11:39;1.38;;;0.73;;
83827;SDS011;74656;48.870;12.562;2024-02-23T10:14:42;1.13;;;1.02;;
83827;SDS011;74656;48.870;12.562;2024-02-23T10:17:43;1.25;;;0.70;;
83827;SDS011;74656;48.870;12.562;2024-02-23T10:20:46;1.42;;;0.98;;
83827;SDS011;74656;48.870;12.562;2024-02-23T10:23:49;1.10;;;0.93;;
83827;SDS011;74656;48.870;12.562;2024-02-23T10:26:51;1.13;;;0.98;;
83827;SDS011;74656;48.870;12.562;2024-02-23T10:29:53;1.95;;;1.20;;
83827;SDS011;74656;48.870;12.562;2024-02-23T10:32:56;2.10;;;0.93;;
83827;SDS011;74656;48.870;12.562;2024-02-23T10:35:59;2.47;;;1.20;;
83827;SDS011;74656;48.870;12.562;2024-02-23T10:39:02;2.17;;;1.65;;
83827;SDS011;74656;48.870;12.562;2024-02-23T10:42:08;0.93;;;0.70;;
83827;SDS011;74656;48.870;12.562;2024-02-23T10:45:11;1.00;;;0.90;;
83827;SDS011;74656;48.870;12.562;2024-02-23T10:48:13;1.05;;;0.80;;
83827;SDS011;74656;48.870;12.562;2024-02-23T10:51:17;1.63;;;0.95;;
83827;SDS011;74656;48.870;12.562;2024-02-23T10:54:21;1.20;;;1.10;;
83827;SDS011;74656;48.870;12.562;2024-02-23T10:57:24;1.45;;;1.00;;
83827;SDS011;74656;48.870;12.562;2024-02-23T11:00:26;0.82;;;0.80;;
83827;SDS011;74656;48.870;12.562;2024-02-23T11:03:29;3.42;;;2.05;;
83827;SDS011;74656;48.870;12.562;2024-02-23T11:06:33;1.63;;;1.08;;
83827;SDS011;74656;48.870;12.562;2024-02-23T11:09:35;2.05;;;1.00;;
83827;SDS011;74656;48.870;12.562;2024-02-23T11:12:37;1.13;;;1.02;;
83827;SDS011;74656;48.870;12.562;2024-02-23T11:15:41;0.75;;;0.63;;
83827;SDS011;74656;48.870;12.562;2024-02-23T11:21:52;1.33;;;1.00;;
83827;SDS011;74656;48.870;12.562;2024-02-23T11:24:59;1.67;;;1.02;;
83827;SDS011;74656;48.870;12.562;2024-02-23T11:28:21;0.90;;;0.73;;
83827;SDS011;74656;48.870;12.562;2024-02-23T11:31:24;0.85;;;0.70;;
83827;SDS011;74656;48.870;12.562;2024-02-23T11:34:30;0.95;;;0.60;;
83827;SDS011;74656;48.870;12.562;2024-02-23T11:37:43;1.67;;;1.20;;
83827;SDS011;74656;48.870;12.562;2024-02-23T11:40:55;1.88;;;1.33;;
83827;SDS011;74656;48.870;12.562;2024-02-23T11:43:58;1.77;;;1.25;;
83827;SDS011;74656;48.870;12.562;2024-02-23T11:47:00;1.13;;;0.82;;
83827;SDS011;74656;48.870;12.562;2024-02-23T11:50:02;0.93;;;0.90;;
83827;SDS011;74656;48.870;12.562;2024-02-23T11:53:04;2.05;;;1.58;;
83827;SDS011;74656;48.870;12.562;2024-02-23T11:56:07;2.10;;;1.35;;
83827;SDS011;74656;48.870;12.562;2024-02-23T11:59:09;3.45;;;1.58;;
83827;SDS011;74656;48.870;12.562;2024-02-23T12:02:12;2.88;;;1.65;;
83827;SDS011;74656;48.870;12.562;2024-02-23T12:05:14;2.40;;;1.60;;
83827;SDS011;74656;48.870;12.562;2024-02-23T12:08:17;2.20;;;1.10;;
83827;SDS011;74656;48.870;12.562;2024-02-23T12:11:19;1.17;;;0.98;;
83827;SDS011;74656;48.870;12.562;2024-02-23T12:14:21;1.80;;;1.20;;
83827;SDS011;74656;48.870;12.562;2024-02-23T12:17:23;3.30;;;1.40;;
83827;SDS011;74656;48.870;12.562;2024-02-23T12:20:25;2.67;;;1.35;;
83827;SDS011;74656;48.870;12.562;2024-02-23T12:23:43;2.45;;;1.42;;
83827;SDS011;74656;48.870;12.562;2024-02-23T12:26:52;1.40;;;0.93;;
83827;SDS011;74656;48.870;12.562;2024-02-23T12:29:55;11.30;;;5.22;;
83827;SDS011;74656;48.870;12.562;2024-02-23T12:33:04;1.70;;;1.27;;
83827;SDS011;74656;48.870;12.562;2024-02-23T12:36:08;5.20;;;3.28;;
83827;SDS011;74656;48.870;12.562;2024-02-23T12:39:12;2.10;;;1.60;;
83827;SDS011;74656;48.870;12.562;2024-02-23T12:42:14;2.30;;;1.45;;
83827;SDS011;74656;48.870;12.562;2024-02-23T12:45:16;1.63;;;1.15;;
83827;SDS011;74656;48.870;12.562;2024-02-23T12:48:18;2.45;;;1.85;;
83827;SDS011;74656;48.870;12.562;2024-02-23T12:51:24;1.38;;;1.15;;
83827;SDS011;74656;48.870;12.562;2024-02-23T12:54:27;0.90;;;0.90;;
83827;SDS011;74656;48.870;12.562;2024-02-23T12:57:28;1.48;;;1.27;;
83827;SDS011;74656;48.870;12.562;2024-02-23T13:00:30;1.75;;;1.30;;
83827;SDS011;74656;48.870;12.562;2024-02-23T13:03:36;1.40;;;1.20;;
83827;SDS011;74656;48.870;12.562;2024-02-23T13:06:39;1.80;;;1.25;;
83827;SDS011;74656;48.870;12.562;2024-02-23T13:09:41;2.35;;;1.40;;
83827;SDS011;74656;48.870;12.562;2024-02-23T13:12:44;2.28;;;1.45;;
83827;SDS011;74656;48.870;12.562;2024-02-23T13:15:46;1.67;;;1.25;;
83827;SDS011;74656;48.870;12.562;2024-02-23T13:18:49;1.25;;;0.80;;
83827;SDS011;74656;48.870;12.562;2024-02-23T13:21:51;2.40;;;1.08;;
83827;SDS011;74656;48.870;12.562;2024-02-23T13:24:54;1.02;;;0.90;;
83827;SDS011;74656;48.870;12.562;2024-02-23T13:27:56;1.05;;;0.93;;
83827;SDS011;74656;48.870;12.562;2024-02-23T13:30:57;1.55;;;0.90;;
83827;SDS011;74656;48.870;12.562;2024-02-23T13:34:00;1.52;;;1.00;;
83827;SDS011;74656;48.870;12.562;2024-02-23T13:37:02;0.82;;;0.77;;
83827;SDS011;74656;48.870;12.562;2024-02-23T13:40:04;0.98;;;0.82;;
83827;SDS011;74656;48.870;12.562;2024-02-23T13:43:06;4.22;;;1.40;;
83827;SDS011;74656;48.870;12.562;2024-02-23T13:46:08;6.43;;;2.55;;
83827;SDS011;74656;48.870;12.562;2024-02-23T13:49:10;5.30;;;2.20;;
83827;SDS011;74656;48.870;12.562;2024-02-23T13:52:12;2.22;;;1.10;;
83827;SDS011;74656;48.870;12.562;2024-02-23T13:55:14;0.95;;;0.88;;
83827;SDS011;74656;48.870;12.562;2024-02-23T13:58:16;1.48;;;0.95;;
83827;SDS011;74656;48.870;12.562;2024-02-23T14:01:18;0.85;;;0.82;;
83827;SDS011;74656;48.870;12.562;2024-02-23T14:04:20;1.17;;;1.08;;
83827;SDS011;74656;48.870;12.562;2024-02-23T14:07:22;1.60;;;1.02;;
83827;SDS011;74656;48.870;12.562;2024-02-23T14:10:24;1.80;;;1.27;;
83827;SDS011;74656;48.870;12.562;2024-02-23T14:13:26;2.72;;;1.15;;
83827;SDS011;74656;48.870;12.562;2024-02-23T14:16:29;2.05;;;1.48;;
83827;SDS011;74656;48.870;12.562;2024-02-23T14:19:30;2.60;;;1.52;;
83827;SDS011;74656;48.870;12.562;2024-02-23T14:22:32;2.05;;;1.33;;
83827;SDS011;74656;48.870;12.562;2024-02-23T14:25:34;2.72;;;1.52;;
83827;SDS011;74656;48.870;12.562;2024-02-23T14:28:36;1.63;;;1.23;;
83827;SDS011;74656;48.870;12.562;2024-02-23T14:31:38;2.10;;;1.30;;
83827;SDS011;74656;48.870;12.562;2024-02-23T14:34:40;3.55;;;1.83;;
83827;SDS011;74656;48.870;12.562;2024-02-23T14:37:41;7.75;;;3.78;;
83827;SDS011;74656;48.870;12.562;2024-02-23T14:40:43;3.53;;;1.80;;
83827;SDS011;74656;48.870;12.562;2024-02-23T14:43:45;4.47;;;1.67;;
83827;SDS011;74656;48.870;12.562;2024-02-23T14:46:47;2.67;;;1.30;;
83827;SDS011;74656;48.870;12.562;2024-02-23T14:49:49;2.95;;;1.52;;
83827;SDS011;74656;48.870;12.562;2024-02-23T14:52:51;2.95;;;1.55;;
83827;SDS011;74656;48.870;12.562;2024-02-23T14:55:53;1.90;;;1.00;;
83827;SDS011;74656;48.870;12.562;2024-02-23T14:58:55;2.75;;;1.42;;
83827;SDS011;74656;48.870;12.562;2024-02-23T15:01:57;1.67;;;1.15;;
83827;SDS011;74656;48.870;12.562;2024-02-23T15:04:59;2.35;;;1.60;;
83827;SDS011;74656;48.870;12.562;2024-02-23T15:08:01;2.25;;;1.17;;
83827;SDS011;74656;48.870;12.562;2024-02-23T15:11:03;2.00;;;1.40;;
83827;SDS011;74656;48.870;12.562;2024-02-23T15:14:05;2.05;;;1.40;;
83827;SDS011;74656;48.870;12.562;2024-02-23T15:17:07;2.22;;;1.23;;
83827;SDS011;74656;48.870;12.562;2024-02-23T15:20:09;1.65;;;1.35;;
83827;SDS011;74656;48.870;12.562;2024-02-23T15:23:12;1.70;;;1.48;;
83827;SDS011;74656;48.870;12.562;2024-02-23T15:26:14;1.60;;;1.20;;
83827;SDS011;74656;48.870;12.562;2024-02-23T15:29:16;1.98;;;1.48;;
83827;SDS011;74656;48.870;12.562;2024-02-23T15:32:19;3.00;;;1.80;;
83827;SDS011;74656;48.870;12.562;2024-02-23T15:35:21;2.65;;;1.77;;
83827;SDS011;74656;48.870;12.562;2024-02-23T15:38:23;2.45;;;1.60;;
83827;SDS011;74656;48.870;12.562;2024-02-23T15:41:25;5.25;;;2.88;;
83827;SDS011;74656;48.870;12.562;2024-02-23T15:44:27;8.07;;;4.03;;
83827;SDS011;74656;48.870;12.562;2024-02-23T15:47:31;5.00;;;3.05;;
83827;SDS011;74656;48.870;12.562;2024-02-23T15:50:34;5.97;;;3.17;;
83827;SDS011;74656;48.870;12.562;2024-02-23T15:53:56;3.58;;;2.30;;
83827;SDS011;74656;48.870;12.562;2024-02-23T15:57:01;3.72;;;2.33;;
83827;SDS011;74656;48.870;12.562;2024-02-23T16:00:04;4.20;;;2.20;;
83827;SDS011;74656;48.870;12.562;2024-02-23T16:03:07;3.83;;;2.38;;
83827;SDS011;74656;48.870;12.562;2024-02-23T16:06:09;8.88;;;5.07;;
83827;SDS011;74656;48.870;12.562;2024-02-23T16:09:10;4.65;;;2.88;;
83827;SDS011;74656;48.870;12.562;2024-02-23T16:12:13;2.08;;;1.58;;
83827;SDS011;74656;48.870;12.562;2024-02-23T16:15:14;3.33;;;1.77;;
83827;SDS011;74656;48.870;12.562;2024-02-23T16:18:16;2.80;;;1.75;;
83827;SDS011;74656;48.870;12.562;2024-02-23T16:21:18;3.20;;;1.80;;
83827;SDS011;74656;48.870;12.562;2024-02-23T16:24:20;3.45;;;1.92;;
83827;SDS011;74656;48.870;12.562;2024-02-23T16:27:22;3.58;;;1.88;;
83827;SDS011;74656;48.870;12.562;2024-02-23T16:30:24;3.80;;;1.77;;
83827;SDS011;74656;48.870;12.562;2024-02-23T16:33:26;2.85;;;1.80;;
83827;SDS011;74656;48.870;12.562;2024-02-23T16:36:29;3.55;;;2.47;;
83827;SDS011;74656;48.870;12.562;2024-02-23T16:39:31;4.25;;;1.60;;
83827;SDS011;74656;48.870;12.562;2024-02-23T16:42:33;4.13;;;2.40;;
83827;SDS011;74656;48.870;12.562;2024-02-23T16:45:35;17.23;;;9.77;;
83827;SDS011;74656;48.870;12.562;2024-02-23T16:48:37;4.80;;;2.58;;
83827;SDS011;74656;48.870;12.562;2024-02-23T16:51:39;9.55;;;5.35;;
83827;SDS011;74656;48.870;12.562;2024-02-23T16:54:42;2.72;;;1.88;;
83827;SDS011;74656;48.870;12.562;2024-02-23T16:57:44;4.28;;;1.95;;
83827;SDS011;74656;48.870;12.562;2024-02-23T17:00:46;2.30;;;1.70;;
83827;SDS011;74656;48.870;12.562;2024-02-23T17:03:48;3.45;;;1.70;;
83827;SDS011;74656;48.870;12.562;2024-02-23T17:06:50;2.58;;;1.60;;
83827;SDS011;74656;48.870;12.562;2024-02-23T17:09:52;2.10;;;1.77;;
83827;SDS011;74656;48.870;12.562;2024-02-23T17:12:53;2.78;;;1.73;;
83827;SDS011;74656;48.870;12.562;2024-02-23T17:15:55;5.28;;;1.95;;
83827;SDS011;74656;48.870;12.562;2024-02-23T17:18:57;10.40;;;4.43;;
83827;SDS011;74656;48.870;12.562;2024-02-23T17:21:59;2.53;;;1.83;;
83827;SDS011;74656;48.870;12.562;2024-02-23T17:25:01;3.03;;;1.70;;
83827;SDS011;74656;48.870;12.562;2024-02-23T17:28:03;8.63;;;4.85;;
83827;SDS011;74656;48.870;12.562;2024-02-23T17:31:05;4.70;;;2.53;;
83827;SDS011;74656;48.870;12.562;2024-02-23T17:34:07;4.00;;;2.55;;
83827;SDS011;74656;48.870;12.562;2024-02-23T17:37:09;2.85;;;2.17;;
83827;SDS011;74656;48.870;12.562;2024-02-23T17:40:11;4.10;;;2.63;;
83827;SDS011;74656;48.870;12.562;2024-02-23T17:43:14;4.40;;;2.90;;
83827;SDS011;74656;48.870;12.562;2024-02-23T17:46:16;4.78;;;3.28;;
83827;SDS011;74656;48.870;12.562;2024-02-23T17:49:17;3.53;;;2.67;;
83827;SDS011;74656;48.870;12.562;2024-02-23T17:52:20;2.92;;;1.92;;
83827;SDS011;74656;48.870;12.562;2024-02-23T17:55:21;2.88;;;1.60;;
83827;SDS011;74656;48.870;12.562;2024-02-23T17:58:24;2.53;;;1.60;;
83827;SDS011;74656;48.870;12.562;2024-02-23T18:01:26;3.10;;;1.70;;
83827;SDS011;74656;48.870;12.562;2024-02-23T18:04:28;2.90;;;2.03;;